Time;durP1;ratioP1;P1;durP2;ratioP2;P2;SDS_P1;SDS_P2;PMS_P1;PMS_P2;Temp;Humidity;BMP_temperature;BMP_pressure;BME280_temperature;BME280_humidity;BME280_pressure;Samples;Min_cycle;Max_cycle;Signal;HPM_P1;HPM_P2
2021/07/15 00:01:46;;;;;;;15.63;14.10;;;;;;;19.61;90.61;101122.56;5033168;28;20200;-71
2021/07/15 00:04:12;;;;;;;18.00;14.10;;;;;;;19.53;91.08;101117.59;5009378;28;20193;-72
2021/07/15 00:06:38;;;;;;;16.40;13.60;;;;;;;19.59;91.01;101127.47;5013353;28;20442;-72
2021/07/15 00:09:04;;;;;;;20.20;13.00;;;;;;;19.60;91.20;101137.25;5014235;28;20482;-72
2021/07/15 00:11:31;;;;;;;15.63;12.60;;;;;;;19.48;90.75;101090.31;5012688;28;20468;-71
2021/07/15 00:13:56;;;;;;;13.27;11.97;;;;;;;19.47;91.14;101111.25;5015989;28;20199;-72
2021/07/15 00:16:23;;;;;;;14.17;12.70;;;;;;;19.50;91.34;101116.19;5016060;28;20916;-72
2021/07/15 00:18:49;;;;;;;19.40;14.07;;;;;;;19.56;91.39;101130.69;5011509;28;20188;-71
2021/07/15 00:21:17;;;;;;;17.57;14.03;;;;;;;19.39;91.71;101122.56;5015303;28;20475;-71
2021/07/15 00:23:44;;;;;;;15.67;13.73;;;;;;;19.31;91.88;101114.81;5016703;28;20479;-72
2021/07/15 00:26:10;;;;;;;14.63;12.93;;;;;;;19.46;91.76;101127.81;5020584;28;20482;-71
2021/07/15 00:28:37;;;;;;;15.60;13.43;;;;;;;19.48;92.10;101137.38;5017406;28;20918;-71
2021/07/15 00:31:04;;;;;;;18.70;13.73;;;;;;;19.53;91.65;101129.28;5014872;28;20204;-71
2021/07/15 00:33:29;;;;;;;13.27;12.00;;;;;;;19.23;91.04;101083.44;5019333;28;20498;-71
2021/07/15 00:35:56;;;;;;;14.20;12.80;;;;;;;19.29;91.48;101098.75;5018536;28;20438;-71
2021/07/15 00:38:22;;;;;;;18.63;13.53;;;;;;;19.29;91.42;101089.78;5018875;28;20280;-73
2021/07/15 00:40:47;;;;;;;14.50;12.50;;;;;;;19.17;91.57;101066.22;5013331;28;20531;-71
2021/07/15 00:43:13;;;;;;;14.73;13.17;;;;;;;19.62;90.76;101135.94;5020830;28;20192;-71
2021/07/15 00:45:38;;;;;;;16.00;13.30;;;;;;;19.59;91.08;101125.56;5023489;28;20594;-71
2021/07/15 00:48:04;;;;;;;20.03;13.10;;;;;;;19.06;91.68;101059.00;5020982;28;20204;-71
2021/07/15 00:50:33;;;;;;;14.70;13.20;;;;;;;18.99;91.69;101046.66;5015575;28;20220;-71
2021/07/15 00:53:01;;;;;;;15.03;13.40;;;;;;;19.24;91.04;101078.81;5020842;28;20466;-72
2021/07/15 00:55:32;;;;;;;12.67;11.53;;;;;;;19.40;91.03;101103.25;5016233;28;20887;-72
2021/07/15 00:57:58;;;;;;;16.20;12.67;;;;;;;19.50;91.30;101135.25;5015779;28;20463;-72
2021/07/15 01:00:25;;;;;;;13.93;11.57;;;;;;;18.91;91.07;101045.19;5010890;28;20546;-71
2021/07/15 01:02:52;;;;;;;12.87;10.70;;;;;;;19.19;91.30;101083.13;5013804;28;21248;-72
2021/07/15 01:05:34;;;;;;;18.03;12.33;;;;;;;19.57;91.19;101130.41;5016337;28;21189;-71
2021/07/15 01:08:00;;;;;;;15.33;11.80;;;;;;;19.34;90.98;101095.28;5023948;28;20470;-72
2021/07/15 01:10:30;;;;;;;14.90;12.30;;;;;;;19.52;91.14;101130.34;5013947;28;20459;-72
2021/07/15 01:13:01;;;;;;;15.33;12.17;;;;;;;19.54;91.46;101138.28;5016555;28;20462;-72
2021/07/15 01:15:37;;;;;;;15.10;11.70;;;;;;;19.24;91.48;101095.13;5011441;28;20536;-72
2021/07/15 01:18:26;;;;;;;13.90;11.23;;;;;;;19.53;91.62;101140.19;5016905;28;20427;-71
2021/07/15 01:21:10;;;;;;;14.67;12.57;;;;;;;19.48;91.78;101137.38;5014803;28;20463;-72
2021/07/15 01:23:35;;;;;;;17.03;13.30;;;;;;;19.49;91.76;101147.16;5016134;28;21066;-72
2021/07/15 01:26:01;;;;;;;19.70;13.73;;;;;;;19.52;91.50;101138.50;5015635;28;20542;-72
2021/07/15 01:28:46;;;;;;;15.20;13.70;;;;;;;19.42;91.53;101133.75;5017441;28;20208;-72
2021/07/15 01:31:15;;;;;;;19.43;14.43;;;;;;;19.15;92.16;101097.44;5014770;28;20290;-72
2021/07/15 01:33:42;;;;;;;16.60;14.90;;;;;;;19.24;92.16;101112.28;5016172;28;20915;-72
2021/07/15 01:36:13;;;;;;;18.37;14.70;;;;;;;19.25;91.94;101110.41;5017137;28;20534;-71
2021/07/15 01:38:43;;;;;;;17.70;14.67;;;;;;;19.41;91.67;101140.28;5011709;28;20443;-71
2021/07/15 01:41:21;;;;;;;18.97;14.23;;;;;;;19.30;91.97;101126.78;5009510;28;20463;-72
2021/07/15 01:44:03;;;;;;;18.17;13.80;;;;;;;19.45;92.07;101135.16;5019972;28;20541;-72
2021/07/15 01:46:29;;;;;;;15.90;14.30;;;;;;;19.32;92.04;101121.91;5011425;28;20435;-72
2021/07/15 01:48:54;;;;;;;21.50;15.03;;;;;;;19.29;91.95;101115.06;5014497;28;20468;-72
2021/07/15 01:51:21;;;;;;;14.70;13.20;;;;;;;19.20;91.82;101098.34;5017349;28;20197;-71
2021/07/15 01:53:49;;;;;;;18.13;13.50;;;;;;;19.18;91.67;101096.97;5021208;28;20185;-72
2021/07/15 01:56:16;;;;;;;17.30;15.53;;;;;;;19.33;91.71;101120.84;5010582;28;20454;-72
2021/07/15 01:58:44;;;;;;;16.70;13.77;;;;;;;19.58;91.18;101153.81;5014779;28;20554;-72
2021/07/15 02:01:12;;;;;;;19.17;15.70;;;;;;;19.49;91.81;101158.06;5014703;28;20980;-72
2021/07/15 02:03:44;;;;;;;17.80;15.13;;;;;;;19.47;91.72;101162.94;5028941;28;20447;-71
2021/07/15 02:06:10;;;;;;;16.97;14.03;;;;;;;19.29;91.67;101125.94;5009727;28;20444;-71
2021/07/15 02:08:37;;;;;;;17.33;15.53;;;;;;;19.12;91.34;101101.53;5017676;28;20596;-72
2021/07/15 02:11:03;;;;;;;17.17;15.13;;;;;;;19.41;92.22;101163.91;5009672;28;20463;-72
2021/07/15 02:13:29;;;;;;;19.30;15.40;;;;;;;19.43;92.25;101167.22;5014567;28;20454;-71
2021/07/15 02:15:57;;;;;;;20.33;16.40;;;;;;;19.48;92.44;101180.09;5011437;28;20443;-71
2021/07/15 02:18:23;;;;;;;16.63;14.00;;;;;;;19.17;91.96;101119.78;5015008;28;20192;-71
2021/07/15 02:20:51;;;;;;;21.30;15.27;;;;;;;19.42;92.20;101166.41;5013656;28;20440;-71
2021/07/15 02:23:18;;;;;;;18.27;16.00;;;;;;;19.21;91.89;101115.50;5012305;28;20284;-71
2021/07/15 02:25:47;;;;;;;21.30;16.43;;;;;;;19.17;92.04;101119.78;5008974;28;20462;-72
2021/07/15 02:28:14;;;;;;;25.73;17.27;;;;;;;19.07;92.35;101112.31;5014290;28;20470;-71
2021/07/15 02:30:40;;;;;;;23.87;17.77;;;;;;;18.90;92.26;101096.00;5015049;28;20875;-71
2021/07/15 02:33:11;;;;;;;18.80;16.80;;;;;;;19.50;91.66;101172.47;5016554;28;20449;-71
2021/07/15 02:35:47;;;;;;;20.00;17.30;;;;;;;19.02;91.97;101106.78;5009773;28;21315;-72
2021/07/15 02:38:15;;;;;;;22.30;17.37;;;;;;;19.37;92.05;101168.22;5014149;28;21427;-71
2021/07/15 02:40:42;;;;;;;18.93;16.73;;;;;;;19.45;91.67;101167.81;5016192;28;20447;-72
2021/07/15 02:43:07;;;;;;;21.93;17.40;;;;;;;19.32;92.00;101159.97;5016726;28;20524;-72
2021/07/15 02:45:33;;;;;;;18.83;16.73;;;;;;;19.17;91.66;101131.47;5010824;28;20883;-71
2021/07/15 02:47:58;;;;;;;21.63;18.43;;;;;;;19.16;91.59;101110.00;5018146;28;20223;-72
2021/07/15 02:50:25;;;;;;;26.13;17.60;;;;;;;19.51;91.28;101164.06;5017434;28;20567;-71
2021/07/15 02:52:52;;;;;;;25.23;17.73;;;;;;;19.17;91.76;101123.31;5011013;28;20375;-72
2021/07/15 02:55:19;;;;;;;22.07;17.13;;;;;;;19.31;92.02;101158.34;5011949;28;20447;-72
2021/07/15 02:58:34;;;;;;;19.93;17.63;;;;;;;18.98;92.24;101113.81;5014598;28;20458;-71
2021/07/15 03:01:00;;;;;;;20.10;16.67;;;;;;;19.29;92.36;101164.00;5008551;28;20526;-71
2021/07/15 03:03:45;;;;;;;19.27;16.10;;;;;;;19.26;92.09;101169.13;5017462;28;20501;-71
2021/07/15 03:06:22;;;;;;;20.97;17.37;;;;;;;19.27;92.07;101159.94;5017568;28;20492;-71
2021/07/15 03:08:56;;;;;;;19.80;17.23;;;;;;;18.51;92.29;101040.72;5012708;28;20523;-72
2021/07/15 03:11:22;;;;;;;18.43;16.30;;;;;;;19.14;92.06;101136.59;5021123;28;20532;-71
2021/07/15 03:13:50;;;;;;;18.40;14.97;;;;;;;19.10;92.68;101138.19;5014952;28;20919;-72
2021/07/15 03:16:16;;;;;;;21.03;14.97;;;;;;;19.23;92.08;101150.59;5010630;28;20813;-72
2021/07/15 03:18:46;;;;;;;23.53;17.30;;;;;;;19.28;91.98;101161.56;5012416;28;21033;-71
2021/07/15 03:21:13;;;;;;;17.47;15.60;;;;;;;19.29;92.46;101158.56;5011379;28;20943;-71
2021/07/15 03:23:40;;;;;;;20.50;15.90;;;;;;;19.29;91.98;101163.19;5017709;28;20484;-71
2021/07/15 03:26:08;;;;;;;20.30;15.63;;;;;;;19.28;91.88;101153.41;5016631;28;20466;-71
2021/07/15 03:28:36;;;;;;;20.17;17.10;;;;;;;19.06;91.94;101140.56;5013181;28;20578;-71
2021/07/15 03:31:07;;;;;;;20.00;16.87;;;;;;;19.46;91.47;101172.16;5009364;28;20466;-71
2021/07/15 03:33:35;;;;;;;16.33;14.63;;;;;;;19.39;91.13;101175.06;5013289;28;20434;-71
2021/07/15 03:36:04;;;;;;;17.40;14.67;;;;;;;19.26;91.72;101169.13;5010783;28;20444;-71
2021/07/15 03:38:30;;;;;;;16.30;14.60;;;;;;;19.08;91.23;101132.97;5011814;28;20526;-72
2021/07/15 03:40:58;;;;;;;15.30;13.67;;;;;;;19.20;91.83;101163.63;5012437;28;20936;-71
2021/07/15 03:43:24;;;;;;;18.07;14.97;;;;;;;19.35;91.60;101203.84;5011631;28;20462;-71
2021/07/15 03:45:50;;;;;;;17.07;14.80;;;;;;;18.99;91.97;101142.63;5009767;28;20442;-72
2021/07/15 03:48:16;;;;;;;15.30;13.37;;;;;;;19.39;91.31;101183.22;5015172;28;20262;-71
2021/07/15 03:50:45;;;;;;;15.27;12.20;;;;;;;19.29;91.38;101179.50;5011525;28;20500;-71
2021/07/15 03:53:11;;;;;;;14.07;12.60;;;;;;;19.29;91.83;101193.13;5017321;28;20442;-71
2021/07/15 03:55:38;;;;;;;17.50;13.87;;;;;;;19.34;91.63;101201.34;5017503;28;20458;-72
2021/07/15 03:58:09;;;;;;;18.13;13.37;;;;;;;19.43;90.75;101197.97;5009084;28;20533;-71
2021/07/15 04:00:37;;;;;;;16.30;12.87;;;;;;;19.39;90.92;101209.59;5010514;28;20438;-71
2021/07/15 04:03:04;;;;;;;13.43;11.43;;;;;;;19.32;91.21;101198.06;5011068;28;21047;-72
2021/07/15 04:05:31;;;;;;;16.80;13.20;;;;;;;19.32;91.64;101212.47;5014062;28;20451;-71
2021/07/15 04:07:59;;;;;;;12.63;11.07;;;;;;;19.09;91.64;101202.63;5007970;28;20551;-71
2021/07/15 04:10:28;;;;;;;12.77;11.43;;;;;;;19.22;91.91;101215.03;5006549;28;20447;-72
2021/07/15 04:12:57;;;;;;;15.10;10.50;;;;;;;19.05;91.35;101178.88;5008617;28;20559;-71
2021/07/15 04:15:33;;;;;;;18.37;11.57;;;;;;;19.36;91.00;101240.03;5008377;28;20458;-72
2021/07/15 04:18:01;;;;;;;14.50;10.30;;;;;;;19.09;91.09;101218.94;5014388;28;20936;-72
2021/07/15 04:20:28;;;;;;;11.83;8.43;;;;;;;18.93;90.59;101168.91;5015614;28;20443;-72
2021/07/15 04:22:57;;;;;;;13.30;9.33;;;;;;;19.25;91.24;101238.22;5008906;28;20516;-72
2021/07/15 04:25:43;;;;;;;13.40;9.13;;;;;;;19.32;91.28;101260.63;5010799;28;20475;-72
2021/07/15 04:28:08;;;;;;;13.70;9.50;;;;;;;19.04;91.53;101234.31;5009770;28;20822;-71
2021/07/15 04:30:34;;;;;;;18.03;9.87;;;;;;;19.22;91.08;101249.56;5008358;28;20594;-71
2021/07/15 04:33:05;;;;;;;16.60;9.10;;;;;;;19.32;90.92;101261.44;5016745;28;22518;-71
2021/07/15 04:35:33;;;;;;;13.37;9.53;;;;;;;19.08;91.18;101224.59;5027408;28;20188;-71
2021/07/15 04:37:59;;;;;;;20.53;10.17;;;;;;;19.11;91.36;101249.38;5019812;28;20439;-72
2021/07/15 04:40:26;;;;;;;12.33;9.17;;;;;;;19.15;90.92;101227.97;5013597;28;20862;-71
2021/07/15 04:42:56;;;;;;;18.57;10.20;;;;;;;19.13;90.79;101230.13;5008625;28;20532;-71
2021/07/15 04:45:25;;;;;;;17.80;10.83;;;;;;;19.29;90.86;101255.66;5010521;28;20928;-71
2021/07/15 04:47:53;;;;;;;23.10;11.20;;;;;;;19.23;91.23;101243.88;5013011;28;20468;-71
2021/07/15 04:50:21;;;;;;;15.73;10.27;;;;;;;19.02;91.13;101218.25;5012850;28;20444;-71
2021/07/15 04:52:55;;;;;;;19.77;11.13;;;;;;;19.09;90.93;101227.09;5012689;28;20470;-71
2021/07/15 04:55:22;;;;;;;18.50;10.33;;;;;;;19.12;91.54;101250.22;5010339;28;20442;-71
2021/07/15 04:57:52;;;;;;;16.97;12.00;;;;;;;19.01;91.40;101219.31;5016400;28;20467;-72
2021/07/15 05:00:19;;;;;;;19.90;11.80;;;;;;;19.26;90.92;101251.53;5025544;28;20461;-72
2021/07/15 05:02:44;;;;;;;17.30;11.50;;;;;;;18.79;90.92;101200.19;5014800;28;20506;-72
2021/07/15 05:05:12;;;;;;;16.17;12.40;;;;;;;19.08;91.04;101252.59;5008171;28;21506;-71
2021/07/15 05:07:38;;;;;;;13.23;11.40;;;;;;;19.12;91.30;101270.09;5020587;28;20201;-71
2021/07/15 05:10:08;;;;;;;17.93;11.43;;;;;;;19.08;91.51;101266.19;5018277;28;20804;-71
2021/07/15 05:12:34;;;;;;;15.50;11.67;;;;;;;19.00;91.43;101250.28;5041698;28;20462;-71
2021/07/15 05:15:08;;;;;;;15.60;11.53;;;;;;;19.18;90.83;101263.66;5022795;28;20427;-72
2021/07/15 05:17:33;;;;;;;14.73;11.37;;;;;;;19.03;91.67;101259.84;5022903;28;20649;-72
2021/07/15 05:19:59;;;;;;;14.00;10.63;;;;;;;19.09;91.29;101269.72;5014296;28;20486;-72
2021/07/15 05:22:25;;;;;;;14.53;10.93;;;;;;;18.83;91.30;101214.91;5013503;28;20201;-71
2021/07/15 05:24:50;;;;;;;16.27;10.30;;;;;;;18.82;90.76;101215.16;5018339;28;20724;-71
2021/07/15 05:27:16;;;;;;;11.30;10.13;;;;;;;18.80;91.06;101222.72;5014516;28;20578;-71
2021/07/15 05:29:41;;;;;;;14.03;11.37;;;;;;;19.05;91.19;101263.97;5015872;28;20268;-71
2021/07/15 05:32:07;;;;;;;11.63;9.40;;;;;;;18.77;91.52;101217.78;5038461;28;20295;-71
2021/07/15 05:34:33;;;;;;;12.20;8.90;;;;;;;18.78;91.55;101227.63;5018354;28;20196;-71
2021/07/15 05:37:01;;;;;;;11.30;8.80;;;;;;;18.89;91.84;101246.56;5013530;28;20189;-72
2021/07/15 05:39:26;;;;;;;9.90;8.30;;;;;;;19.07;91.02;101261.84;5019114;28;20184;-71
2021/07/15 05:41:51;;;;;;;8.20;7.40;;;;;;;18.93;91.14;101234.13;5015289;28;20521;-71
2021/07/15 05:44:17;;;;;;;7.70;6.43;;;;;;;18.92;91.71;101267.84;5019033;28;20192;-72
2021/07/15 05:46:42;;;;;;;7.43;5.87;;;;;;;18.96;91.29;101255.38;5011626;28;20527;-71
2021/07/15 05:49:08;;;;;;;6.60;5.67;;;;;;;19.09;90.99;101278.75;5016724;28;20240;-71
2021/07/15 05:51:33;;;;;;;9.80;7.50;;;;;;;18.85;91.21;101255.44;5018331;28;20209;-72
2021/07/15 05:53:58;;;;;;;7.57;6.87;;;;;;;18.72;91.29;101254.66;5040449;28;20559;-71
2021/07/15 05:56:24;;;;;;;11.37;7.40;;;;;;;18.69;91.43;101255.13;5016250;28;20184;-71
2021/07/15 05:58:49;;;;;;;8.67;7.60;;;;;;;18.93;91.43;101280.34;5015086;28;20812;-71
2021/07/15 06:01:14;;;;;;;11.23;8.53;;;;;;;18.66;91.71;101249.34;5016782;28;20208;-71
2021/07/15 06:03:40;;;;;;;9.77;8.87;;;;;;;18.55;92.18;101250.25;5015461;28;20192;-72
2021/07/15 06:06:05;;;;;;;10.50;9.40;;;;;;;18.79;91.79;101283.59;5019575;28;20653;-72
2021/07/15 06:08:31;;;;;;;10.23;8.97;;;;;;;18.56;91.86;101244.56;5010994;28;20300;-71
2021/07/15 06:10:56;;;;;;;14.10;10.07;;;;;;;18.67;91.69;101268.13;5021350;28;20205;-71
2021/07/15 06:13:21;;;;;;;10.77;9.67;;;;;;;18.78;91.80;101285.50;5014231;28;20201;-71
2021/07/15 06:15:47;;;;;;;15.07;11.17;;;;;;;18.54;91.53;101268.41;5015851;28;20385;-71
2021/07/15 06:18:12;;;;;;;14.73;10.90;;;;;;;18.67;91.56;101280.91;5015890;28;20185;-70
2021/07/15 06:20:38;;;;;;;15.30;11.03;;;;;;;18.81;91.32;101301.31;5012080;28;20220;-71
2021/07/15 06:23:03;;;;;;;15.73;11.00;;;;;;;18.59;91.40;101268.50;5016997;28;20577;-71
2021/07/15 06:25:29;;;;;;;14.83;11.53;;;;;;;18.63;91.24;101279.72;5013263;28;20184;-71
2021/07/15 06:27:55;;;;;;;15.83;11.03;;;;;;;18.84;91.18;101324.47;5017765;28;20213;-71
2021/07/15 06:30:21;;;;;;;14.07;10.27;;;;;;;18.59;91.42;101300.28;5010515;28;20187;-71
2021/07/15 06:32:46;;;;;;;14.10;9.73;;;;;;;18.80;91.65;101350.47;5010234;28;20467;-71
2021/07/15 06:35:15;;;;;;;13.90;10.47;;;;;;;18.49;91.69;101299.03;5007407;28;20760;-71
2021/07/15 06:37:40;;;;;;;15.30;11.40;;;;;;;18.21;91.93;101263.66;5013105;28;20188;-70
2021/07/15 06:40:09;;;;;;;15.53;10.60;;;;;;;18.64;91.88;101330.28;5014326;28;20447;-71
2021/07/15 06:42:35;;;;;;;13.93;8.30;;;;;;;18.54;91.51;101303.72;5009180;28;20211;-70
2021/07/15 06:45:01;;;;;;;9.40;8.50;;;;;;;18.55;92.11;101326.31;5020066;28;20431;-71
2021/07/15 06:47:26;;;;;;;8.13;7.30;;;;;;;18.64;91.36;101336.53;5017264;28;20856;-71
2021/07/15 06:49:52;;;;;;;12.50;8.23;;;;;;;18.29;91.69;101285.84;5016516;28;20522;-71
2021/07/15 06:52:17;;;;;;;11.13;8.60;;;;;;;18.68;91.43;101348.56;5018882;28;20297;-72
2021/07/15 06:54:43;;;;;;;9.00;8.10;;;;;;;18.36;91.76;101318.28;5013067;28;20588;-71
2021/07/15 06:57:08;;;;;;;9.53;7.00;;;;;;;18.76;91.57;101360.19;5035527;28;20188;-71
2021/07/15 06:59:34;;;;;;;7.10;6.00;;;;;;;18.46;91.96;101331.28;5014243;28;20197;-70
2021/07/15 07:01:59;;;;;;;7.57;6.80;;;;;;;18.31;91.73;101310.03;5023968;28;20450;-72
2021/07/15 07:04:25;;;;;;;8.60;6.10;;;;;;;18.20;91.73;101295.44;5017839;28;20189;-71
2021/07/15 07:06:50;;;;;;;7.53;6.83;;;;;;;18.25;92.01;101297.41;5023079;28;20223;-72
2021/07/15 07:09:16;;;;;;;11.03;7.20;;;;;;;18.25;91.92;101308.28;5034339;28;20209;-71
2021/07/15 07:11:42;;;;;;;12.90;7.20;;;;;;;18.34;91.79;101316.88;5013092;28;20214;-71
2021/07/15 07:14:08;;;;;;;9.87;7.07;;;;;;;18.21;92.57;101315.25;5004097;28;20453;-70
2021/07/15 07:16:33;;;;;;;8.50;7.43;;;;;;;18.13;91.85;101283.03;5006653;28;20817;-71
2021/07/15 07:18:58;;;;;;;7.83;6.90;;;;;;;18.43;92.20;101342.63;5003647;28;25723;-71
2021/07/15 07:21:24;;;;;;;8.30;6.20;;;;;;;18.47;92.31;101351.94;5005387;28;20311;-70
2021/07/15 07:23:49;;;;;;;11.60;7.00;;;;;;;18.56;92.52;101365.97;5000203;28;20323;-71
2021/07/15 07:26:14;;;;;;;11.87;6.83;;;;;;;18.39;93.11;101355.00;4999986;28;20203;-70
2021/07/15 07:28:40;;;;;;;13.60;7.77;;;;;;;18.13;92.48;101308.28;5002107;28;20228;-71
2021/07/15 07:31:05;;;;;;;9.67;7.60;;;;;;;18.53;93.58;101376.25;5006085;28;20237;-70
2021/07/15 07:33:31;;;;;;;13.70;7.90;;;;;;;18.28;92.53;101343.94;5008474;28;20189;-71
2021/07/15 07:35:56;;;;;;;18.20;9.20;;;;;;;18.45;92.88;101375.78;5011749;28;20196;-71
2021/07/15 07:38:21;;;;;;;14.73;8.37;;;;;;;18.32;93.20;101359.75;5000834;28;20189;-71
2021/07/15 07:40:47;;;;;;;16.60;7.90;;;;;;;18.59;92.99;101400.81;5006517;28;20296;-70
2021/07/15 07:43:12;;;;;;;17.23;8.40;;;;;;;18.58;92.89;101401.88;5012030;28;20185;-70
2021/07/15 07:45:38;;;;;;;15.70;8.13;;;;;;;18.72;92.81;101406.00;5023131;28;20254;-70
2021/07/15 07:48:03;;;;;;;13.20;7.10;;;;;;;18.23;92.59;101337.56;5011977;28;21711;-70
2021/07/15 07:50:29;;;;;;;10.27;6.37;;;;;;;18.61;92.09;101380.50;5007377;28;20196;-70
2021/07/15 07:52:57;;;;;;;14.40;6.97;;;;;;;18.71;92.70;101413.31;5006841;28;20208;-70
2021/07/15 07:55:22;;;;;;;13.53;6.50;;;;;;;18.76;92.63;101409.91;5010288;28;20191;-71
2021/07/15 07:57:47;;;;;;;12.77;7.10;;;;;;;18.35;92.61;101356.56;5007109;28;20436;-71
2021/07/15 08:00:15;;;;;;;11.40;6.57;;;;;;;18.58;92.44;101389.13;5013128;28;20197;-71
2021/07/15 08:02:42;;;;;;;11.13;5.90;;;;;;;18.71;92.41;101413.31;5008954;28;20216;-70
2021/07/15 08:05:09;;;;;;;9.60;5.80;;;;;;;18.50;92.39;101375.91;5016128;28;20943;-71
2021/07/15 08:07:35;;;;;;;11.80;6.00;;;;;;;18.55;92.18;101386.06;5012751;28;21063;-71
2021/07/15 08:10:04;;;;;;;7.77;4.90;;;;;;;18.85;91.19;101423.94;5014588;28;20443;-71
2021/07/15 08:12:29;;;;;;;8.57;5.30;;;;;;;18.89;91.65;101428.69;5012530;28;20286;-70
2021/07/15 08:14:55;;;;;;;11.13;5.90;;;;;;;18.77;91.88;101433.28;5014671;28;20475;-71
2021/07/15 08:17:20;;;;;;;8.67;5.60;;;;;;;18.79;91.31;101408.59;5009084;28;20181;-70
2021/07/15 08:19:45;;;;;;;6.43;4.80;;;;;;;18.72;91.05;101404.09;5015744;28;20881;-70
2021/07/15 08:22:11;;;;;;;8.77;6.00;;;;;;;18.79;90.95;101431.16;5007914;28;20267;-70
2021/07/15 08:24:37;;;;;;;10.83;7.40;;;;;;;18.79;91.97;101441.22;5011588;28;20581;-70
2021/07/15 08:27:02;;;;;;;11.80;5.63;;;;;;;18.85;91.60;101432.94;5014276;28;20309;-70
2021/07/15 08:29:28;;;;;;;11.03;5.70;;;;;;;18.94;91.79;101441.53;5014718;28;20475;-69
2021/07/15 08:31:53;;;;;;;10.20;5.70;;;;;;;18.74;91.04;101418.28;5009007;28;20263;-69
2021/07/15 08:34:19;;;;;;;14.00;6.07;;;;;;;18.63;91.68;101421.84;5011399;28;20220;-69
2021/07/15 08:36:45;;;;;;;14.27;7.23;;;;;;;18.82;90.88;101449.72;5009575;28;20181;-70
2021/07/15 08:39:10;;;;;;;18.80;7.60;;;;;;;18.41;91.54;101390.91;5010424;28;20497;-70
2021/07/15 08:41:37;;;;;;;10.97;6.67;;;;;;;18.70;90.84;101432.56;5010639;28;20240;-70
2021/07/15 08:44:04;;;;;;;12.53;6.50;;;;;;;18.85;90.81;101451.94;5013252;28;20574;-70
2021/07/15 08:46:31;;;;;;;13.23;7.77;;;;;;;18.70;90.63;101425.25;5019984;28;20474;-69
2021/07/15 08:48:58;;;;;;;12.30;7.23;;;;;;;18.68;89.99;101419.22;5011078;28;20510;-70
2021/07/15 08:51:23;;;;;;;13.10;7.97;;;;;;;18.79;90.27;101431.16;5012559;28;20959;-69
2021/07/15 08:53:49;;;;;;;17.53;7.57;;;;;;;18.92;90.34;101455.38;5002924;28;20451;-70
2021/07/15 08:59:13;;;;;;;16.00;8.40;;;;;;;19.02;90.85;101471.06;5007355;28;20690;-68
2021/07/15 09:01:44;;;;;;;14.40;7.30;;;;;;;19.02;91.18;101471.06;5001756;28;20672;-68
2021/07/15 09:04:10;;;;;;;18.70;7.13;;;;;;;18.85;90.83;101456.56;5007107;28;20450;-69
2021/07/15 09:06:36;;;;;;;15.93;7.80;;;;;;;18.87;90.98;101449.00;5012403;28;20518;-69
2021/07/15 09:09:03;;;;;;;13.00;6.90;;;;;;;19.13;90.41;101466.69;5011102;28;20513;-70
2021/07/15 09:11:28;;;;;;;15.70;7.90;;;;;;;19.09;88.99;101465.50;5010811;28;20482;-69
2021/07/15 09:13:54;;;;;;;11.70;7.87;;;;;;;19.18;88.69;101462.19;5016096;28;20795;-70
2021/07/15 09:16:20;;;;;;;11.27;6.50;;;;;;;18.86;89.29;101410.13;5010215;28;20180;-71
2021/07/15 09:19:05;;;;;;;16.27;7.20;;;;;;;19.03;89.33;101440.09;5012585;28;20290;-71
2021/07/15 09:21:35;;;;;;;13.77;8.00;;;;;;;19.21;89.31;101471.75;5010934;28;24439;-71
2021/07/15 09:24:21;;;;;;;16.83;7.03;;;;;;;19.09;89.53;101477.22;5008503;28;20450;-71
2021/07/15 09:26:46;;;;;;;13.93;7.17;;;;;;;19.04;89.43;101474.38;5011925;28;20458;-71
2021/07/15 09:29:16;;;;;;;15.30;6.77;;;;;;;18.83;88.76;101443.19;5010682;28;20974;-71
2021/07/15 09:31:55;;;;;;;12.23;6.80;;;;;;;19.19;88.68;101485.56;5005643;28;20209;-73
2021/07/15 09:34:22;;;;;;;17.13;7.83;;;;;;;19.09;88.46;101485.38;5032900;28;20432;-71
2021/07/15 09:36:48;;;;;;;15.20;7.00;;;;;;;18.95;88.50;101463.06;5018455;28;20840;-71
2021/07/15 09:39:24;;;;;;;9.33;5.87;;;;;;;19.23;88.60;101487.81;5025052;28;20522;-71
2021/07/15 09:42:05;;;;;;;17.03;6.80;;;;;;;19.22;88.46;101497.88;5023079;28;20278;-71
2021/07/15 09:44:31;;;;;;;12.33;6.90;;;;;;;19.23;88.76;101499.50;5017239;28;23158;-71
2021/07/15 09:46:57;;;;;;;14.03;6.33;;;;;;;18.49;89.67;101412.28;5017616;28;20505;-72
2021/07/15 09:49:30;;;;;;;10.57;6.63;;;;;;;18.97;89.23;101490.00;5039278;28;20859;-71
2021/07/15 09:51:58;;;;;;;12.77;7.03;;;;;;;19.05;89.13;101503.22;5023358;28;20211;-70
2021/07/15 09:54:23;;;;;;;12.27;7.00;;;;;;;18.86;88.93;101445.47;5022274;28;20427;-71
2021/07/15 09:56:49;;;;;;;14.23;7.17;;;;;;;19.23;88.28;101485.09;5019896;28;20450;-71
2021/07/15 09:59:14;;;;;;;11.73;7.00;;;;;;;18.88;89.16;101448.75;5019946;28;20654;-71
2021/07/15 10:01:51;;;;;;;10.77;6.57;;;;;;;19.08;87.98;101493.75;5017898;28;20328;-72
2021/07/15 10:04:23;;;;;;;17.60;6.60;;;;;;;18.92;88.96;101487.19;5019620;28;20198;-71
2021/07/15 10:06:51;;;;;;;15.80;7.40;;;;;;;19.06;88.23;101493.97;5022375;28;20459;-72
2021/07/15 10:09:22;;;;;;;9.97;6.30;;;;;;;19.23;87.43;101488.63;5020124;28;20477;-72
2021/07/15 10:11:47;;;;;;;11.30;6.60;;;;;;;19.32;87.94;101481.75;5020343;28;20478;-71
2021/07/15 10:14:14;;;;;;;12.87;6.70;;;;;;;19.59;87.11;101487.47;5015301;28;20456;-72
2021/07/15 10:16:45;;;;;;;12.90;6.83;;;;;;;19.25;88.16;101477.53;5017834;28;20184;-72
2021/07/15 10:19:19;;;;;;;11.80;7.10;;;;;;;19.46;88.14;101503.22;5024514;28;20439;-71
2021/07/15 10:21:45;;;;;;;9.70;6.30;;;;;;;19.07;87.80;101463.03;5016339;28;20466;-73
2021/07/15 10:24:22;;;;;;;16.63;7.73;;;;;;;19.22;89.20;101507.94;5017294;28;20473;-71
2021/07/15 10:26:50;;;;;;;10.33;6.80;;;;;;;19.30;87.72;101499.41;5019273;28;21286;-71
2021/07/15 10:29:18;;;;;;;16.40;7.90;;;;;;;19.34;87.98;101504.09;5020111;28;20881;-71
2021/07/15 10:31:45;;;;;;;15.03;6.63;;;;;;;19.38;87.18;101508.00;5025070;28;20507;-72
2021/07/15 10:34:11;;;;;;;11.90;6.00;;;;;;;19.41;87.34;101504.78;5018271;28;20439;-71
2021/07/15 10:36:37;;;;;;;10.90;6.80;;;;;;;19.53;86.88;101512.09;5018303;28;20443;-71
2021/07/15 10:39:10;;;;;;;9.90;6.20;;;;;;;19.45;87.39;101509.75;5017957;28;20443;-71
2021/07/15 10:41:41;;;;;;;15.87;6.80;;;;;;;19.35;86.67;101513.06;5017422;28;20469;-72
2021/07/15 10:44:06;;;;;;;11.43;6.60;;;;;;;19.32;87.28;101508.94;5022659;28;20809;-72
2021/07/15 10:46:32;;;;;;;19.53;7.87;;;;;;;18.97;87.36;101458.19;5021126;28;20505;-71
2021/07/15 10:48:58;;;;;;;16.33;7.60;;;;;;;18.89;86.93;101458.59;5023715;28;20208;-72
2021/07/15 10:51:23;;;;;;;16.50;7.37;;;;;;;19.01;86.45;101503.94;5018127;28;20208;-72
2021/07/15 10:53:50;;;;;;;11.30;7.23;;;;;;;18.83;85.68;101451.34;5019800;28;20595;-72
2021/07/15 10:56:17;;;;;;;11.93;6.80;;;;;;;18.87;86.05;101482.44;5023233;28;20216;-72
2021/07/15 10:58:46;;;;;;;14.57;6.60;;;;;;;19.22;86.89;101532.41;5022034;28;20913;-72
2021/07/15 11:01:41;;;;;;;13.80;6.50;;;;;;;19.10;86.90;101505.22;5009727;28;20463;-72
2021/07/15 11:04:07;;;;;;;12.63;6.27;;;;;;;19.28;85.90;101523.28;5020560;28;20959;-72
2021/07/15 11:06:38;;;;;;;12.87;7.23;;;;;;;19.26;86.13;101530.84;5017327;28;20446;-72
2021/07/15 11:09:04;;;;;;;10.57;6.20;;;;;;;18.93;85.44;101481.50;5015297;28;20208;-72
2021/07/15 11:11:40;;;;;;;12.13;6.20;;;;;;;18.86;86.61;101477.25;5014073;28;20517;-72
2021/07/15 11:14:07;;;;;;;9.30;6.53;;;;;;;19.34;84.75;101533.19;5018718;28;20477;-72
2021/07/15 11:16:54;;;;;;;14.50;5.73;;;;;;;19.12;84.98;101511.22;5017016;28;20443;-72
2021/07/15 11:19:59;;;;;;;15.70;7.00;;;;;;;19.26;86.83;101534.38;5022003;28;21124;-72
2021/07/15 11:22:45;;;;;;;11.03;6.00;;;;;;;19.39;86.01;101528.69;5001696;28;20467;-72